MHTG

Toncontín International Airport

Airport
ICAO code
MHTG
IATA Code
TGU
Summary
ICAO Region
CARSAM
ICAO Territory
Location

Tegucigalpa, Central District

Serving
Tegucigalpa
Elevation
3297 ft
Coordinates
14° 3' 41" N , 87° 13' 2" W
KCC
Airport RE
Hot and High Operations
Airport WX
Tropical Revolving Storm
Metar
Observation
MHTG 270400Z 02014KT 9999 BKN030 BKN080 21/16 Q1020 A3012 NOSIG
Station
Tegucigalpa
Date/Time
2023-01-27 04:00:00
Wind direction
20°
Wind speed
14 kts
Lowest cloud amount
broken clouds
Temperature
21°C
Dew point
16°C
Humidity
73%
QNH
1020 hPa
Weather condition
n/a

Toncontín International Airport is a civil and military airport that serves Tegucigalpa, Honduras. It is 6 km away from the center of Tegucigalpa.

Climatology

Tropical Savanna climate (Köppen climate classification Aw)

Runways

Designator Length Width Surface Rops
2/20 1863 45 ASP Yes/Yes

Airport map

Aerial View

SKYbrary Partners:

Safety knowledge contributed by: